createdAt,value
2023-03-11T00:01:36.539Z,10.92
2023-03-11T00:04:43.703Z,10.25
2023-03-11T00:07:52.227Z,9.57
2023-03-11T00:11:03.069Z,8.78
2023-03-11T00:14:08.846Z,8.37
2023-03-11T00:17:18.353Z,7.51
2023-03-11T00:20:28.355Z,7.54
2023-03-11T00:23:37.596Z,7.60
2023-03-11T00:26:43.525Z,7.62
2023-03-11T00:29:50.083Z,7.17
2023-03-11T00:32:59.733Z,6.46
2023-03-11T00:36:07.114Z,6.31
2023-03-11T00:39:15.589Z,6.11
2023-03-11T00:42:23.911Z,6.30
2023-03-11T00:45:31.831Z,6.21
2023-03-11T00:48:38.465Z,6.12
2023-03-11T00:51:44.890Z,4.91
2023-03-11T00:54:54.220Z,3.69
2023-03-11T00:58:03.830Z,3.08
2023-03-11T01:01:30.853Z,2.83
2023-03-11T01:04:36.865Z,2.98
2023-03-11T01:07:43.651Z,2.42
2023-03-11T01:10:52.235Z,2.21
2023-03-11T01:13:58.769Z,1.92
2023-03-11T01:17:04.570Z,2.05
2023-03-11T01:20:12.856Z,1.91
2023-03-11T01:23:20.996Z,1.87
2023-03-11T01:26:30.225Z,1.96
2023-03-11T01:29:36.167Z,1.86
2023-03-11T01:32:43.448Z,1.86
2023-03-11T01:35:50.325Z,1.94
2023-03-11T01:38:58.027Z,1.92
2023-03-11T01:42:07.082Z,2.00
2023-03-11T01:45:42.602Z,1.80
2023-03-11T01:48:53.992Z,2.16
2023-03-11T01:52:08.068Z,2.94
2023-03-11T01:55:23.146Z,3.59
2023-03-11T01:58:41.026Z,4.40
2023-03-11T02:01:58.155Z,5.36
2023-03-11T02:05:07.699Z,5.31
2023-03-11T02:08:13.817Z,4.72
2023-03-11T02:11:26.586Z,3.97
2023-03-11T02:14:38.253Z,3.37
2023-03-11T02:17:47.403Z,2.87
2023-03-11T02:21:10.048Z,2.93
2023-03-11T02:24:31.125Z,3.01
2023-03-11T02:27:48.222Z,3.22
2023-03-11T02:30:56.685Z,3.16
2023-03-11T02:34:12.988Z,2.94
2023-03-11T02:37:21.870Z,2.82
2023-03-11T02:40:55.732Z,2.70
2023-03-11T02:44:09.852Z,2.81
2023-03-11T02:47:17.454Z,2.77
2023-03-11T02:50:28.264Z,2.68
2023-03-11T02:53:44.557Z,2.57
2023-03-11T02:56:51.110Z,2.52
2023-03-11T03:00:02.400Z,2.33
2023-03-11T03:03:10.736Z,2.36
2023-03-11T03:06:18.341Z,2.37
2023-03-11T03:09:25.059Z,2.66
2023-03-11T03:12:31.080Z,2.23
2023-03-11T03:15:40.326Z,2.42
2023-03-11T03:18:46.410Z,2.55
2023-03-11T03:21:53.979Z,2.41
2023-03-11T03:25:01.472Z,2.10
2023-03-11T03:28:10.039Z,2.29
2023-03-11T03:31:21.406Z,2.89
2023-03-11T03:34:28.627Z,3.12
2023-03-11T03:37:38.440Z,2.16
2023-03-11T03:40:50.518Z,2.11
2023-03-11T03:43:59.345Z,2.32
2023-03-11T03:47:09.505Z,2.16
2023-03-11T03:50:17.739Z,2.43
2023-03-11T03:53:27.274Z,2.92
2023-03-11T03:56:33.905Z,2.86
2023-03-11T03:59:41.687Z,2.32
2023-03-11T04:02:50.058Z,2.44
2023-03-11T04:06:13.466Z,2.58
2023-03-11T04:09:19.535Z,2.83
2023-03-11T04:12:26.241Z,3.22
2023-03-11T04:15:32.364Z,3.80
2023-03-11T04:18:41.558Z,3.88
2023-03-11T04:21:47.564Z,3.52
2023-03-11T04:24:54.701Z,3.23
2023-03-11T04:28:03.087Z,2.99
2023-03-11T04:31:12.696Z,2.96
2023-03-11T04:34:21.337Z,2.86
2023-03-11T04:37:31.528Z,2.98
2023-03-11T04:40:40.135Z,2.99
2023-03-11T04:43:47.148Z,3.10
2023-03-11T04:46:53.359Z,2.90
2023-03-11T04:50:02.632Z,2.23
2023-03-11T04:53:09.201Z,1.83
2023-03-11T04:56:17.101Z,1.73
2023-03-11T04:59:23.172Z,1.92
2023-03-11T05:02:31.345Z,2.32
2023-03-11T05:05:42.085Z,2.49
2023-03-11T05:08:50.097Z,2.66
2023-03-11T05:11:56.273Z,2.58
2023-03-11T05:15:03.637Z,2.66
2023-03-11T05:18:09.937Z,2.49
2023-03-11T05:21:20.858Z,2.77
2023-03-11T05:24:27.985Z,3.07
2023-03-11T05:27:36.137Z,3.40
2023-03-11T05:30:43.092Z,3.69
2023-03-11T05:33:50.213Z,2.66
2023-03-11T05:36:59.420Z,2.16
2023-03-11T05:40:10.470Z,3.26
2023-03-11T05:43:17.279Z,2.88
2023-03-11T05:46:32.456Z,4.79
2023-03-11T05:49:39.943Z,5.35
2023-03-11T05:52:49.322Z,7.66
2023-03-11T05:56:02.669Z,12.25
2023-03-11T05:59:09.500Z,4.64
2023-03-11T06:02:16.045Z,6.04
2023-03-11T06:05:23.140Z,3.57
2023-03-11T06:08:34.614Z,2.69
2023-03-11T06:11:42.455Z,2.31
2023-03-11T06:14:48.919Z,2.54
2023-03-11T06:17:55.866Z,2.54
2023-03-11T06:21:04.144Z,3.69
2023-03-11T06:24:15.023Z,5.14
2023-03-11T06:27:25.821Z,6.96
2023-03-11T06:30:33.771Z,5.56
2023-03-11T06:33:46.430Z,5.14
2023-03-11T06:36:57.371Z,3.03
2023-03-11T06:40:07.529Z,2.89
2023-03-11T06:43:14.725Z,2.81
2023-03-11T06:46:25.599Z,13.30
2023-03-11T06:49:34.552Z,21.91
2023-03-11T06:52:40.509Z,17.55
2023-03-11T06:56:02.533Z,7.19
2023-03-11T06:59:10.492Z,7.03
2023-03-11T07:02:17.401Z,7.53
2023-03-11T07:05:23.291Z,6.02
2023-03-11T07:08:34.796Z,5.85
2023-03-11T07:11:43.371Z,6.38
2023-03-11T07:14:58.866Z,8.87
2023-03-11T07:18:05.667Z,10.60
2023-03-11T07:21:14.307Z,11.86
2023-03-11T07:24:20.304Z,16.15
2023-03-11T07:27:31.730Z,19.12
2023-03-11T07:30:37.554Z,16.84
2023-03-11T07:33:44.356Z,14.42
2023-03-11T07:36:50.157Z,10.65
2023-03-11T07:39:57.119Z,10.80
2023-03-11T07:43:05.637Z,9.34
2023-03-11T07:46:16.685Z,7.98
2023-03-11T07:49:22.658Z,8.11
2023-03-11T07:52:32.454Z,7.57
2023-03-11T07:55:40.317Z,7.57
2023-03-11T07:58:50.026Z,7.68
2023-03-11T08:01:57.134Z,10.63
2023-03-11T08:05:03.861Z,10.62
2023-03-11T08:08:09.773Z,9.51
2023-03-11T08:11:18.007Z,9.91
2023-03-11T08:14:26.398Z,7.87
2023-03-11T08:17:33.115Z,7.72
2023-03-11T08:20:41.105Z,10.71
2023-03-11T08:23:49.201Z,18.70
2023-03-11T08:26:55.646Z,11.86
2023-03-11T08:30:05.216Z,12.53
2023-03-11T08:33:11.201Z,13.29
2023-03-11T08:36:17.974Z,10.00
2023-03-11T08:39:24.112Z,8.71
2023-03-11T08:42:30.703Z,10.72
2023-03-11T08:45:39.114Z,10.47
2023-03-11T08:48:47.261Z,12.80
2023-03-11T08:51:53.115Z,16.51
2023-03-11T08:55:00.412Z,20.67
2023-03-11T08:58:07.676Z,15.08
2023-03-11T09:01:17.320Z,17.58
2023-03-11T09:04:23.120Z,14.67
2023-03-11T09:07:29.828Z,15.90
2023-03-11T09:10:36.076Z,16.95
2023-03-11T09:13:43.856Z,12.90
2023-03-11T09:16:52.217Z,20.00
2023-03-11T09:19:58.823Z,16.31
2023-03-11T09:23:04.812Z,14.15
2023-03-11T09:26:11.516Z,18.78
2023-03-11T09:29:18.209Z,14.64
2023-03-11T09:32:28.317Z,14.18
2023-03-11T09:35:34.446Z,78.39
2023-03-11T09:38:41.216Z,44.63
2023-03-11T09:41:59.059Z,41.09
2023-03-11T09:45:15.520Z,42.68
2023-03-11T09:48:40.231Z,26.10
2023-03-11T09:52:04.846Z,23.26
2023-03-11T09:55:34.711Z,26.68
2023-03-11T09:58:47.733Z,20.07
2023-03-11T10:01:55.821Z,23.05
2023-03-11T10:05:16.909Z,21.78
2023-03-11T10:08:36.258Z,25.03
2023-03-11T10:12:10.009Z,18.60
2023-03-11T10:15:39.707Z,37.26
2023-03-11T10:19:03.575Z,42.93
2023-03-11T10:22:29.915Z,40.23
2023-03-11T10:25:56.851Z,36.57
2023-03-11T10:29:13.236Z,55.97
2023-03-11T10:32:32.033Z,48.70
2023-03-11T10:35:47.550Z,39.47
2023-03-11T10:38:59.149Z,33.24
2023-03-11T10:42:08.874Z,48.97
2023-03-11T10:45:17.607Z,34.34
2023-03-11T10:48:25.748Z,19.13
2023-03-11T10:51:38.587Z,12.34
2023-03-11T10:54:51.169Z,10.95
2023-03-11T10:58:10.426Z,9.93
2023-03-11T11:01:21.856Z,9.12
2023-03-11T11:04:45.107Z,10.94
2023-03-11T11:07:53.269Z,10.68
2023-03-11T11:11:05.898Z,13.24
2023-03-11T11:14:12.370Z,12.35
2023-03-11T11:17:30.009Z,10.34
2023-03-11T11:20:37.845Z,9.27
2023-03-11T11:23:53.032Z,13.06
2023-03-11T11:27:21.622Z,9.50
2023-03-11T11:30:32.420Z,12.88
2023-03-11T11:33:53.226Z,13.77
2023-03-11T11:37:02.792Z,24.28
2023-03-11T11:40:30.783Z,27.89
2023-03-11T11:43:53.289Z,39.19
2023-03-11T11:47:10.590Z,22.40
2023-03-11T11:50:30.254Z,16.19
2023-03-11T11:53:47.228Z,17.29
2023-03-11T11:56:53.909Z,18.09
2023-03-11T12:00:09.614Z,14.70
2023-03-11T12:03:51.503Z,12.37
2023-03-11T12:07:22.281Z,11.44
2023-03-11T12:10:44.497Z,10.81
2023-03-11T12:14:08.453Z,20.70
2023-03-11T12:17:23.744Z,17.71
2023-03-11T12:20:41.421Z,46.58
2023-03-11T12:24:12.260Z,140.42
2023-03-11T12:27:28.288Z,183.74
2023-03-11T12:30:44.677Z,105.13
2023-03-11T12:34:03.265Z,91.37
2023-03-11T12:37:18.448Z,93.62
2023-03-11T12:41:01.137Z,61.48
2023-03-11T12:44:26.598Z,116.55
2023-03-11T12:47:35.246Z,71.59
2023-03-11T12:50:47.328Z,40.18
2023-03-11T12:53:53.263Z,32.38
2023-03-11T12:57:03.265Z,35.30
2023-03-11T13:00:30.706Z,32.79
2023-03-11T13:04:24.372Z,21.58
2023-03-11T13:07:51.238Z,24.73
2023-03-11T13:11:00.748Z,22.18
2023-03-11T13:14:34.176Z,17.48
2023-03-11T13:17:41.977Z,13.23
2023-03-11T13:20:59.025Z,13.11
2023-03-11T13:24:52.987Z,13.20
2023-03-11T13:28:25.584Z,15.01
2023-03-11T13:31:59.376Z,22.49
2023-03-11T13:35:32.393Z,19.80
2023-03-11T13:39:30.573Z,16.57
2023-03-11T13:43:02.798Z,26.14
2023-03-11T13:46:38.555Z,146.35
2023-03-11T13:50:08.952Z,121.38
2023-03-11T13:53:42.530Z,70.55
2023-03-11T13:56:57.620Z,99.35
2023-03-11T14:00:24.252Z,108.29
2023-03-11T14:03:36.939Z,57.33
2023-03-11T14:06:42.787Z,41.19
2023-03-11T14:09:49.531Z,26.27
2023-03-11T14:13:07.339Z,24.94
2023-03-11T14:16:24.240Z,21.10
2023-03-11T14:19:30.697Z,13.89
2023-03-11T14:22:56.594Z,13.09
2023-03-11T14:26:23.131Z,14.72
2023-03-11T14:29:46.036Z,12.00
2023-03-11T14:33:25.449Z,14.22
2023-03-11T14:36:32.203Z,70.09
2023-03-11T14:39:40.504Z,37.04
2023-03-11T14:42:48.821Z,28.88
2023-03-11T14:45:58.122Z,37.80
2023-03-11T14:49:17.178Z,39.02
2023-03-11T14:52:37.474Z,37.61
2023-03-11T14:55:53.816Z,22.44
2023-03-11T14:59:12.676Z,62.15
2023-03-11T15:02:44.157Z,26.43
2023-03-11T15:05:57.894Z,14.02
2023-03-11T15:09:13.502Z,13.89
2023-03-11T15:12:37.477Z,18.07
2023-03-11T15:15:46.285Z,12.38
2023-03-11T15:18:54.526Z,12.94
2023-03-11T15:22:27.229Z,11.69
2023-03-11T15:25:37.533Z,12.44
2023-03-11T15:28:45.227Z,10.23
2023-03-11T15:31:52.039Z,9.55
2023-03-11T15:35:16.434Z,8.93
2023-03-11T15:38:28.880Z,9.25
2023-03-11T15:41:35.520Z,26.16
2023-03-11T15:44:48.411Z,12.48
2023-03-11T15:47:56.913Z,14.13
2023-03-11T15:51:04.019Z,16.14
2023-03-11T15:54:13.367Z,12.56
2023-03-11T15:57:27.993Z,10.66
2023-03-11T16:00:35.805Z,11.46
2023-03-11T16:03:41.769Z,12.35
2023-03-11T16:07:02.932Z,10.09
2023-03-11T16:10:19.098Z,12.25
2023-03-11T16:13:25.728Z,11.75
2023-03-11T16:16:31.681Z,12.46
2023-03-11T16:19:38.447Z,13.78
2023-03-11T16:22:44.719Z,45.76
2023-03-11T16:25:59.562Z,19.62
2023-03-11T16:29:18.523Z,15.69
2023-03-11T16:32:28.148Z,12.74
2023-03-11T16:35:33.999Z,18.08
2023-03-11T16:38:50.680Z,14.80
2023-03-11T16:41:59.253Z,11.86
2023-03-11T16:45:06.041Z,15.58
2023-03-11T16:48:13.523Z,15.36
2023-03-11T16:51:20.174Z,12.08
2023-03-11T16:54:27.878Z,10.18
2023-03-11T16:57:38.013Z,10.95
2023-03-11T17:00:44.269Z,14.39
2023-03-11T17:03:52.123Z,10.78
2023-03-11T17:06:58.322Z,10.03
2023-03-11T17:10:06.670Z,10.53
2023-03-11T17:13:19.206Z,19.10
2023-03-11T17:16:26.071Z,14.61
2023-03-11T17:19:33.958Z,13.71
2023-03-11T17:22:40.850Z,13.97
2023-03-11T17:25:46.723Z,15.33
2023-03-11T17:28:56.161Z,14.82
2023-03-11T17:32:01.969Z,12.89
2023-03-11T17:35:10.188Z,10.98
2023-03-11T17:38:16.736Z,11.07
2023-03-11T17:41:25.024Z,11.05
2023-03-11T17:44:50.223Z,11.46
2023-03-11T17:47:58.150Z,11.25
2023-03-11T17:51:10.258Z,12.18
2023-03-11T17:54:16.967Z,16.37
2023-03-11T17:57:23.072Z,14.48
2023-03-11T18:00:32.329Z,12.68
2023-03-11T18:03:38.147Z,11.01
2023-03-11T18:06:44.825Z,11.62
2023-03-11T18:09:55.291Z,11.69
2023-03-11T18:13:02.093Z,12.56
2023-03-11T18:16:15.534Z,10.60
2023-03-11T18:19:22.643Z,9.62
2023-03-11T18:22:28.476Z,8.80
2023-03-11T18:25:35.629Z,8.36
2023-03-11T18:28:42.994Z,9.40
2023-03-11T18:31:52.332Z,11.04
2023-03-11T18:34:58.089Z,18.51
2023-03-11T18:38:04.858Z,14.82
2023-03-11T18:41:10.738Z,17.08
2023-03-11T18:44:17.420Z,15.95
2023-03-11T18:47:25.833Z,28.65
2023-03-11T18:50:32.562Z,17.49
2023-03-11T18:53:40.690Z,12.12
2023-03-11T18:56:49.964Z,19.48
2023-03-11T18:59:55.758Z,21.65
2023-03-11T19:03:05.120Z,18.67
2023-03-11T19:06:12.342Z,44.69
2023-03-11T19:09:19.465Z,224.61
2023-03-11T19:12:29.389Z,533.74
2023-03-11T19:15:36.180Z,365.42
2023-03-11T19:18:47.768Z,480.85
2023-03-11T19:21:55.567Z,486.75
2023-03-11T19:25:01.404Z,1437.54
2023-03-11T19:28:08.402Z,1944.54
2023-03-11T19:31:14.320Z,334.63
2023-03-11T19:34:24.082Z,161.08
2023-03-11T19:37:29.857Z,133.74
2023-03-11T19:40:36.691Z,81.86
2023-03-11T19:43:43.063Z,45.14
2023-03-11T19:46:49.924Z,63.73
2023-03-11T19:49:58.325Z,96.88
2023-03-11T19:53:05.158Z,119.31
2023-03-11T19:56:13.657Z,103.06
2023-03-11T19:59:20.381Z,110.71
2023-03-11T20:02:26.449Z,83.39
2023-03-11T20:05:39.364Z,71.42
2023-03-11T20:08:45.673Z,59.51
2023-03-11T20:11:52.455Z,47.03
2023-03-11T20:14:58.245Z,36.92
2023-03-11T20:18:06.536Z,25.62
2023-03-11T20:21:17.980Z,20.02
2023-03-11T20:24:24.975Z,14.94
2023-03-11T20:27:30.731Z,13.72
2023-03-11T20:30:38.071Z,17.78
2023-03-11T20:33:44.268Z,16.42
2023-03-11T20:36:53.798Z,26.31
2023-03-11T20:39:59.669Z,33.07
2023-03-11T20:43:06.439Z,33.93
2023-03-11T20:46:13.995Z,36.67
2023-03-11T20:49:20.647Z,36.55
2023-03-11T20:52:35.830Z,43.95
2023-03-11T20:55:44.235Z,39.15
2023-03-11T20:58:55.965Z,39.37
2023-03-11T21:02:03.526Z,29.56
2023-03-11T21:05:12.242Z,29.17
2023-03-11T21:08:21.772Z,29.19
2023-03-11T21:11:28.995Z,30.02
2023-03-11T21:14:35.647Z,31.10
2023-03-11T21:17:41.866Z,28.21
2023-03-11T21:20:48.951Z,27.45
2023-03-11T21:23:57.813Z,32.07
2023-03-11T21:27:05.029Z,30.67
2023-03-11T21:30:14.013Z,30.05
2023-03-11T21:33:21.160Z,27.35
2023-03-11T21:36:27.891Z,21.31
2023-03-11T21:39:37.207Z,24.72
2023-03-11T21:42:43.201Z,20.87
2023-03-11T21:45:55.483Z,24.54
2023-03-11T21:49:05.538Z,18.98
2023-03-11T21:52:13.145Z,17.23
2023-03-11T21:55:22.557Z,18.46
2023-03-11T21:58:30.526Z,18.16
2023-03-11T22:01:37.887Z,17.78
2023-03-11T22:04:45.013Z,16.49
2023-03-11T22:07:51.556Z,16.14
2023-03-11T22:11:01.200Z,16.07
2023-03-11T22:14:09.643Z,16.58
2023-03-11T22:17:16.657Z,17.62
2023-03-11T22:20:23.322Z,15.26
2023-03-11T22:23:30.836Z,16.95
2023-03-11T22:26:39.756Z,15.13
2023-03-11T22:29:46.676Z,14.23
2023-03-11T22:32:53.798Z,15.56
2023-03-11T22:36:02.314Z,15.72
2023-03-11T22:39:09.140Z,13.93
2023-03-11T22:42:18.824Z,14.08
2023-03-11T22:45:27.848Z,14.65
2023-03-11T22:48:35.117Z,15.64
2023-03-11T22:51:40.867Z,14.77
2023-03-11T22:54:48.096Z,15.27
2023-03-11T22:57:57.027Z,14.32
2023-03-11T23:01:04.262Z,15.47
2023-03-11T23:04:10.729Z,16.93
2023-03-11T23:07:18.478Z,16.79
2023-03-11T23:10:24.766Z,15.81
2023-03-11T23:13:35.999Z,16.03
2023-03-11T23:16:44.062Z,15.09
2023-03-11T23:19:50.761Z,16.23
2023-03-11T23:22:56.687Z,17.77
2023-03-11T23:26:03.731Z,16.94
2023-03-11T23:29:12.328Z,19.04
2023-03-11T23:32:18.933Z,17.58
2023-03-11T23:35:24.822Z,17.22
2023-03-11T23:38:31.562Z,17.01
2023-03-11T23:41:38.124Z,16.62
2023-03-11T23:44:47.345Z,17.15
2023-03-11T23:47:53.316Z,16.67
2023-03-11T23:51:00.756Z,14.84
2023-03-11T23:54:06.720Z,14.14
2023-03-11T23:57:13.439Z,15.21
